createdAt,value
2022-08-04T00:02:24.298Z,2.47
2022-08-04T00:05:11.351Z,2.60
2022-08-04T00:08:14.820Z,2.37
2022-08-04T00:10:48.702Z,2.30
2022-08-04T00:13:16.999Z,2.10
2022-08-04T00:15:44.645Z,2.40
2022-08-04T00:18:15.549Z,2.10
2022-08-04T00:20:42.807Z,2.37
2022-08-04T00:23:10.911Z,2.50
2022-08-04T00:25:41.591Z,2.40
2022-08-04T00:28:09.044Z,2.30
2022-08-04T00:30:35.998Z,2.40
2022-08-04T00:33:03.004Z,2.40
2022-08-04T00:35:29.656Z,2.20
2022-08-04T00:37:57.220Z,2.60
2022-08-04T00:41:06.426Z,2.30
2022-08-04T00:44:05.945Z,2.20
2022-08-04T00:47:02.815Z,2.27
2022-08-04T00:49:51.298Z,1.90
2022-08-04T00:52:43.963Z,2.17
2022-08-04T00:55:28.994Z,1.90
2022-08-04T00:58:20.148Z,2.67
2022-08-04T01:01:03.205Z,2.10
2022-08-04T01:03:49.240Z,2.60
2022-08-04T01:06:34.916Z,2.13
2022-08-04T01:09:25.158Z,2.60
2022-08-04T01:12:06.955Z,1.97
2022-08-04T01:14:39.426Z,2.60
2022-08-04T01:17:28.787Z,2.17
2022-08-04T01:19:58.110Z,2.30
2022-08-04T01:22:44.917Z,2.03
2022-08-04T01:25:58.375Z,2.00
2022-08-04T01:28:50.259Z,2.00
2022-08-04T01:31:35.398Z,2.07
2022-08-04T01:34:05.770Z,2.17
2022-08-04T01:36:35.941Z,2.63
2022-08-04T01:39:24.021Z,2.43
2022-08-04T01:41:58.491Z,2.40
2022-08-04T01:44:29.751Z,2.20
2022-08-04T01:46:56.596Z,2.37
2022-08-04T01:49:39.701Z,2.57
2022-08-04T01:52:09.340Z,2.23
2022-08-04T01:54:38.332Z,2.50
2022-08-04T01:57:38.481Z,2.37
2022-08-04T01:59:53.721Z,2.63
2022-08-04T02:02:24.470Z,2.53
2022-08-04T02:04:51.255Z,2.30
2022-08-04T02:07:40.180Z,2.57
2022-08-04T02:10:41.876Z,2.50
2022-08-04T02:13:21.382Z,2.13
2022-08-04T02:16:13.497Z,2.57
2022-08-04T02:19:05.685Z,2.60
2022-08-04T02:21:42.644Z,2.63
2022-08-04T02:24:14.870Z,2.27
2022-08-04T02:26:46.555Z,2.50
2022-08-04T02:29:35.817Z,2.30
2022-08-04T02:32:06.473Z,2.57
2022-08-04T02:34:54.745Z,2.33
2022-08-04T02:37:24.335Z,2.87
2022-08-04T02:39:53.748Z,2.53
2022-08-04T02:42:20.407Z,2.53
2022-08-04T02:44:51.662Z,2.30
2022-08-04T02:47:22.432Z,2.33
2022-08-04T02:49:51.352Z,2.27
2022-08-04T02:52:19.951Z,2.37
2022-08-04T02:54:49.207Z,2.73
2022-08-04T02:57:19.003Z,2.40
2022-08-04T02:59:45.724Z,2.33
2022-08-04T03:02:12.276Z,2.40
2022-08-04T03:05:03.394Z,2.43
2022-08-04T03:07:58.135Z,2.37
2022-08-04T03:10:54.942Z,2.17
2022-08-04T03:14:00.698Z,2.23
2022-08-04T03:16:54.965Z,2.27
2022-08-04T03:19:24.532Z,2.33
2022-08-04T03:22:12.539Z,2.37
2022-08-04T03:25:03.243Z,2.57
2022-08-04T03:27:54.375Z,2.60
2022-08-04T03:30:37.937Z,2.23
2022-08-04T03:33:45.161Z,2.13
2022-08-04T03:36:17.403Z,2.20
2022-08-04T03:39:02.432Z,2.47
2022-08-04T03:41:55.130Z,2.33
2022-08-04T03:44:59.693Z,2.50
2022-08-04T03:47:49.834Z,2.30
2022-08-04T03:50:23.052Z,2.10
2022-08-04T03:53:13.896Z,2.63
2022-08-04T03:56:02.000Z,2.40
2022-08-04T03:59:01.297Z,2.30
2022-08-04T04:02:23.446Z,2.03
2022-08-04T04:05:59.350Z,2.27
2022-08-04T04:08:55.968Z,2.30
2022-08-04T04:11:34.156Z,2.20
2022-08-04T04:14:46.190Z,2.10
2022-08-04T04:17:37.739Z,2.20
2022-08-04T04:20:32.636Z,2.00
2022-08-04T04:23:23.820Z,2.27
2022-08-04T04:26:07.052Z,2.20
2022-08-04T04:29:07.673Z,2.37
2022-08-04T04:31:53.778Z,2.23
2022-08-04T04:34:46.200Z,2.40
2022-08-04T04:37:34.659Z,2.10
2022-08-04T04:40:32.167Z,2.00
2022-08-04T04:43:23.950Z,2.10
2022-08-04T04:46:32.377Z,2.30
2022-08-04T04:49:08.688Z,1.93
2022-08-04T04:51:48.103Z,2.17
2022-08-04T04:54:28.801Z,2.17
2022-08-04T04:57:10.806Z,2.30
2022-08-04T04:59:41.549Z,1.97
2022-08-04T05:02:24.089Z,1.90
2022-08-04T05:05:25.879Z,1.97
2022-08-04T05:07:58.639Z,2.00
2022-08-04T05:11:02.570Z,1.90
2022-08-04T05:14:38.595Z,1.97
2022-08-04T05:16:33.310Z,1.77
2022-08-04T05:19:34.281Z,1.40
2022-08-04T05:22:14.600Z,1.40
2022-08-04T05:24:46.689Z,1.50
2022-08-04T05:27:22.408Z,1.77
2022-08-04T05:29:59.141Z,1.40
2022-08-04T05:32:31.142Z,1.53
2022-08-04T05:35:07.210Z,1.40
2022-08-04T05:37:38.003Z,1.50
2022-08-04T05:40:07.032Z,1.70
2022-08-04T05:42:38.322Z,1.60
2022-08-04T05:45:07.791Z,1.80
2022-08-04T05:47:35.307Z,1.73
2022-08-04T05:50:06.608Z,1.77
2022-08-04T05:52:36.628Z,1.70
2022-08-04T05:55:05.538Z,1.80
2022-08-04T05:57:33.363Z,1.57
2022-08-04T06:00:19.508Z,1.43
2022-08-04T06:02:51.790Z,1.90
2022-08-04T06:05:19.167Z,1.53
2022-08-04T06:08:11.887Z,1.67
2022-08-04T06:10:37.658Z,1.73
2022-08-04T06:13:08.654Z,2.00
2022-08-04T06:15:39.261Z,1.80
2022-08-04T06:19:58.715Z,1.50
2022-08-04T06:21:03.819Z,1.57
2022-08-04T06:23:53.265Z,1.70
2022-08-04T06:26:26.456Z,2.10
2022-08-04T06:28:54.903Z,1.90
2022-08-04T06:32:27.408Z,1.70
2022-08-04T06:34:31.507Z,1.93
2022-08-04T06:36:59.368Z,2.13
2022-08-04T06:39:28.117Z,2.13
2022-08-04T06:42:20.705Z,1.90
2022-08-04T06:44:44.467Z,1.80
2022-08-04T06:47:13.887Z,1.60
2022-08-04T06:49:55.202Z,1.80
2022-08-04T06:52:28.818Z,1.90
2022-08-04T06:54:58.059Z,1.90
2022-08-04T06:57:29.030Z,1.50
2022-08-04T07:00:17.331Z,1.70
2022-08-04T07:02:53.577Z,1.60
2022-08-04T07:05:21.360Z,1.33
2022-08-04T07:07:57.305Z,1.57
2022-08-04T07:10:29.380Z,1.50
2022-08-04T07:13:01.465Z,1.70
2022-08-04T07:15:31.505Z,1.67
2022-08-04T07:18:00.318Z,1.75
2022-08-04T07:20:34.845Z,1.70
2022-08-04T07:23:06.449Z,1.55
2022-08-04T07:26:00.828Z,1.60
2022-08-04T07:28:26.151Z,1.40
2022-08-04T07:30:53.926Z,1.58
2022-08-04T07:33:21.467Z,1.55
2022-08-04T07:36:09.347Z,1.50
2022-08-04T07:38:48.729Z,1.80
2022-08-04T07:41:38.296Z,1.70
2022-08-04T07:44:05.338Z,1.70
2022-08-04T07:46:32.373Z,1.92
2022-08-04T07:49:01.065Z,1.58
2022-08-04T07:51:30.742Z,1.40
2022-08-04T07:53:58.714Z,1.75
2022-08-04T07:56:26.870Z,1.58
2022-08-04T07:58:54.245Z,1.80
2022-08-04T08:01:21.573Z,1.70
2022-08-04T08:03:48.985Z,1.90
2022-08-04T08:06:30.485Z,1.67
2022-08-04T08:09:02.338Z,1.50
2022-08-04T08:12:35.113Z,1.50
2022-08-04T08:14:32.067Z,1.83
2022-08-04T08:17:00.289Z,1.50
2022-08-04T08:19:26.985Z,1.70
2022-08-04T08:21:58.833Z,1.45
2022-08-04T08:24:27.282Z,1.52
2022-08-04T08:26:54.143Z,1.58
2022-08-04T08:29:21.282Z,1.60
2022-08-04T08:31:57.355Z,1.55
2022-08-04T08:34:28.954Z,1.58
2022-08-04T08:37:03.294Z,1.40
2022-08-04T08:39:40.325Z,1.30
2022-08-04T08:42:18.800Z,1.70
2022-08-04T08:45:12.816Z,1.80
2022-08-04T08:48:21.070Z,1.50
2022-08-04T08:50:47.572Z,1.90
2022-08-04T08:53:24.302Z,1.40
2022-08-04T08:56:02.805Z,1.85
2022-08-04T08:58:46.932Z,1.52
2022-08-04T09:01:41.980Z,1.50
2022-08-04T09:04:33.284Z,1.40
2022-08-04T09:07:13.839Z,1.30
2022-08-04T09:09:49.532Z,1.60
2022-08-04T09:12:31.550Z,1.50
2022-08-04T09:15:12.680Z,2.05
2022-08-04T09:18:02.216Z,1.42
2022-08-04T09:20:40.526Z,1.42
2022-08-04T09:23:24.079Z,1.25
2022-08-04T09:26:15.675Z,1.20
2022-08-04T09:28:57.891Z,1.50
2022-08-04T09:31:51.534Z,1.27
2022-08-04T09:35:03.109Z,1.23
2022-08-04T09:37:51.520Z,1.20
2022-08-04T09:40:53.615Z,1.10
2022-08-04T09:44:49.133Z,1.23
2022-08-04T09:47:39.857Z,1.27
2022-08-04T09:50:37.707Z,1.20
2022-08-04T09:53:24.986Z,1.10
2022-08-04T09:56:14.782Z,1.05
2022-08-04T09:58:54.081Z,1.20
2022-08-04T10:01:24.299Z,1.02
2022-08-04T10:03:55.139Z,1.25
2022-08-04T10:07:00.770Z,1.17
2022-08-04T10:10:12.297Z,1.00
2022-08-04T10:12:49.264Z,1.20
2022-08-04T10:15:36.882Z,0.90
2022-08-04T10:18:26.990Z,1.00
2022-08-04T10:21:15.637Z,1.17
2022-08-04T10:24:13.897Z,1.25
2022-08-04T10:26:43.374Z,1.20
2022-08-04T10:29:26.301Z,0.98
2022-08-04T10:32:39.991Z,0.90
2022-08-04T10:35:18.716Z,0.95
2022-08-04T10:38:03.979Z,1.05
2022-08-04T10:40:36.475Z,1.20
2022-08-04T10:43:30.851Z,0.98
2022-08-04T10:46:14.932Z,1.15
2022-08-04T10:48:54.107Z,1.30
2022-08-04T10:51:58.112Z,0.95
2022-08-04T10:54:44.011Z,1.30
2022-08-04T10:57:34.518Z,1.20
2022-08-04T11:00:10.440Z,1.30
2022-08-04T11:03:01.942Z,1.13
2022-08-04T11:05:44.649Z,1.08
2022-08-04T11:08:35.683Z,1.02
2022-08-04T11:11:24.492Z,1.13
2022-08-04T11:14:03.003Z,1.13
2022-08-04T11:16:37.996Z,1.10
2022-08-04T11:19:19.538Z,1.20
2022-08-04T11:22:08.957Z,1.27
2022-08-04T11:25:05.224Z,1.00
2022-08-04T11:27:43.522Z,1.10
2022-08-04T11:30:13.407Z,1.30
2022-08-04T11:32:55.943Z,1.17
2022-08-04T11:35:34.602Z,1.20
2022-08-04T11:38:29.181Z,1.23
2022-08-04T11:41:04.390Z,0.85
2022-08-04T11:44:01.956Z,1.02
2022-08-04T11:46:50.692Z,1.05
2022-08-04T11:49:56.836Z,1.02
2022-08-04T11:52:27.075Z,1.30
2022-08-04T11:54:55.813Z,1.00
2022-08-04T11:57:35.437Z,1.13
2022-08-04T12:00:07.287Z,1.30
2022-08-04T12:02:52.265Z,1.17
2022-08-04T12:05:37.116Z,1.30
2022-08-04T12:08:33.236Z,1.00
2022-08-04T12:11:21.359Z,1.20
2022-08-04T12:14:03.226Z,1.20
2022-08-04T12:17:01.696Z,1.00
2022-08-04T12:19:52.153Z,0.93
2022-08-04T12:22:32.360Z,1.10
2022-08-04T12:25:12.003Z,1.10
2022-08-04T12:28:00.891Z,1.00
2022-08-04T12:31:00.534Z,1.00
2022-08-04T12:34:03.548Z,1.00
2022-08-04T12:36:31.675Z,1.05
2022-08-04T12:39:13.107Z,1.00
2022-08-04T12:41:44.866Z,1.17
2022-08-04T12:44:37.492Z,1.38
2022-08-04T12:47:27.841Z,1.30
2022-08-04T12:50:00.313Z,1.27
2022-08-04T12:55:18.727Z,1.00
2022-08-04T12:57:47.825Z,1.00
2022-08-04T13:00:31.212Z,1.05
2022-08-04T13:03:10.116Z,1.02
2022-08-04T13:05:39.300Z,1.20
2022-08-04T13:08:07.439Z,1.00
2022-08-04T13:10:39.632Z,1.15
2022-08-04T13:13:12.370Z,1.10
2022-08-04T13:15:47.457Z,1.00
2022-08-04T13:18:29.256Z,0.90
2022-08-04T13:21:10.477Z,1.00
2022-08-04T13:24:10.704Z,0.98
2022-08-04T13:26:42.740Z,1.00
2022-08-04T13:29:59.770Z,1.00
2022-08-04T13:32:15.466Z,1.20
2022-08-04T13:34:49.562Z,1.13
2022-08-04T13:37:25.347Z,1.02
2022-08-04T13:39:55.279Z,1.10
2022-08-04T13:42:24.109Z,1.20
2022-08-04T13:44:56.039Z,1.08
2022-08-04T13:47:28.804Z,1.00
2022-08-04T13:50:16.383Z,0.98
2022-08-04T13:52:44.724Z,1.00
2022-08-04T13:55:32.653Z,1.50
2022-08-04T13:58:02.277Z,1.20
2022-08-04T14:00:41.721Z,1.13
2022-08-04T14:03:22.924Z,0.80
2022-08-04T14:06:28.651Z,1.25
2022-08-04T14:08:58.138Z,1.20
2022-08-04T14:12:06.480Z,1.10
2022-08-04T14:14:29.589Z,1.25
2022-08-04T14:17:05.811Z,1.17
2022-08-04T14:19:47.938Z,1.25
2022-08-04T14:22:26.610Z,1.10
2022-08-04T14:25:06.124Z,1.35
2022-08-04T14:27:48.169Z,1.10
2022-08-04T14:30:35.326Z,1.10
2022-08-04T14:34:04.008Z,1.38
2022-08-04T14:35:59.301Z,1.33
2022-08-04T14:38:45.344Z,1.60
2022-08-04T14:41:13.111Z,1.20
2022-08-04T14:43:52.929Z,1.10
2022-08-04T14:46:20.795Z,1.30
2022-08-04T14:49:23.214Z,1.20
2022-08-04T14:51:55.316Z,1.20
2022-08-04T14:54:33.074Z,1.17
2022-08-04T14:57:07.200Z,1.10
2022-08-04T14:59:59.002Z,1.20
2022-08-04T15:02:29.906Z,1.10
2022-08-04T15:04:58.687Z,1.23
2022-08-04T15:07:26.224Z,1.30
2022-08-04T15:09:53.823Z,1.38
2022-08-04T15:12:34.640Z,1.30
2022-08-04T15:15:20.038Z,1.40
2022-08-04T15:17:48.862Z,1.10
2022-08-04T15:20:17.525Z,1.20
2022-08-04T15:22:44.183Z,1.30
2022-08-04T15:25:12.037Z,0.90
2022-08-04T15:27:43.924Z,1.20
2022-08-04T15:30:13.672Z,1.30
2022-08-04T15:32:44.249Z,1.20
2022-08-04T15:35:17.403Z,1.08
2022-08-04T15:38:02.442Z,1.23
2022-08-04T15:40:37.105Z,1.30
2022-08-04T15:43:20.170Z,1.17
2022-08-04T15:46:33.034Z,1.48
2022-08-04T15:48:39.730Z,1.13
2022-08-04T15:51:14.744Z,1.40
2022-08-04T15:54:03.059Z,1.30
2022-08-04T15:56:28.618Z,1.20
2022-08-04T15:58:56.895Z,1.15
2022-08-04T16:01:24.366Z,1.40
2022-08-04T16:03:58.743Z,1.45
2022-08-04T16:06:29.144Z,1.20
2022-08-04T16:09:04.684Z,1.52
2022-08-04T16:11:37.844Z,1.65
2022-08-04T16:14:05.464Z,1.40
2022-08-04T16:16:49.215Z,1.30
2022-08-04T16:19:51.816Z,1.38
2022-08-04T16:22:41.320Z,1.33
2022-08-04T16:25:12.031Z,1.30
2022-08-04T16:27:41.509Z,1.10
2022-08-04T16:30:14.306Z,1.27
2022-08-04T16:32:52.276Z,1.20
2022-08-04T16:35:20.811Z,1.20
2022-08-04T16:37:53.894Z,1.30
2022-08-04T16:40:34.020Z,1.10
2022-08-04T16:43:13.269Z,1.30
2022-08-04T16:45:46.346Z,1.25
2022-08-04T16:48:18.249Z,1.10
2022-08-04T16:50:53.710Z,0.98
2022-08-04T16:53:57.965Z,0.80
2022-08-04T16:56:14.824Z,1.27
2022-08-04T16:58:50.645Z,1.20
2022-08-04T17:01:33.632Z,1.10
2022-08-04T17:04:13.327Z,1.10
2022-08-04T17:06:42.696Z,1.10
2022-08-04T17:09:17.890Z,1.00
2022-08-04T17:11:48.768Z,1.13
2022-08-04T17:14:28.099Z,1.23
2022-08-04T17:17:02.127Z,0.93
2022-08-04T17:19:29.190Z,1.25
2022-08-04T17:22:04.693Z,1.10
2022-08-04T17:24:38.321Z,1.00
2022-08-04T17:28:19.101Z,1.33
2022-08-04T17:29:53.874Z,1.00
2022-08-04T17:32:22.319Z,0.88
2022-08-04T17:34:55.190Z,1.00
2022-08-04T17:37:39.370Z,1.30
2022-08-04T17:40:18.048Z,1.33
2022-08-04T17:42:49.935Z,1.10
2022-08-04T17:45:50.669Z,1.25
2022-08-04T17:48:11.378Z,1.38
2022-08-04T17:50:51.608Z,1.70
2022-08-04T17:53:52.938Z,1.30
2022-08-04T17:56:29.355Z,1.40
2022-08-04T17:59:52.318Z,1.50
2022-08-04T18:02:08.911Z,1.52
2022-08-04T18:05:06.092Z,1.35
2022-08-04T18:08:38.395Z,3.10
2022-08-04T18:10:56.106Z,2.60
2022-08-04T18:13:28.072Z,1.73
2022-08-04T18:16:04.991Z,1.77
2022-08-04T18:18:31.842Z,1.70
2022-08-04T18:21:03.178Z,2.00
2022-08-04T18:23:32.732Z,1.65
2022-08-04T18:26:02.125Z,2.00
2022-08-04T18:28:30.752Z,1.98
2022-08-04T18:31:00.234Z,2.00
2022-08-04T18:33:39.939Z,1.88
2022-08-04T18:36:33.378Z,1.98
2022-08-04T18:39:13.481Z,1.70
2022-08-04T18:42:00.941Z,1.92
2022-08-04T18:44:30.962Z,2.22
2022-08-04T18:47:19.304Z,2.38
2022-08-04T18:50:59.983Z,2.10
2022-08-04T18:52:32.104Z,2.20
2022-08-04T18:55:01.649Z,2.65
2022-08-04T18:57:59.878Z,2.60
2022-08-04T19:03:05.150Z,2.55
2022-08-04T19:05:41.322Z,2.50
2022-08-04T19:08:32.585Z,2.67
2022-08-04T19:10:59.928Z,3.45
2022-08-04T19:13:27.758Z,2.60
2022-08-04T19:15:54.664Z,2.70
2022-08-04T19:18:25.981Z,2.58
2022-08-04T19:20:55.629Z,2.97
2022-08-04T19:24:10.169Z,2.88
2022-08-04T19:28:56.087Z,3.00
2022-08-04T19:31:28.393Z,2.90
2022-08-04T19:34:04.848Z,3.20
2022-08-04T19:36:33.133Z,2.90
2022-08-04T19:39:03.403Z,3.08
2022-08-04T19:41:32.001Z,2.88
2022-08-04T19:43:58.679Z,3.20
2022-08-04T19:46:27.974Z,3.10
2022-08-04T19:48:59.474Z,3.63
2022-08-04T19:51:30.431Z,3.08
2022-08-04T19:54:04.010Z,3.45
2022-08-04T19:56:39.942Z,3.20
2022-08-04T19:59:13.011Z,3.90
2022-08-04T20:01:45.338Z,3.45
2022-08-04T20:04:15.762Z,3.70
2022-08-04T20:06:43.129Z,3.72
2022-08-04T20:09:25.838Z,4.20
2022-08-04T20:11:55.514Z,4.22
2022-08-04T20:14:32.115Z,4.70
2022-08-04T20:17:03.191Z,4.63
2022-08-04T20:19:36.599Z,4.90
2022-08-04T20:22:03.284Z,4.50
2022-08-04T20:24:40.530Z,4.70
2022-08-04T20:27:15.904Z,5.00
2022-08-04T20:29:49.652Z,4.72
2022-08-04T20:32:21.857Z,5.18
2022-08-04T20:34:53.400Z,4.60
2022-08-04T20:37:23.580Z,4.82
2022-08-04T20:39:55.480Z,5.13
2022-08-04T20:42:27.437Z,5.25
2022-08-04T20:45:00.200Z,4.80
2022-08-04T20:47:35.306Z,4.95
2022-08-04T20:50:08.737Z,5.30
2022-08-04T20:52:37.714Z,5.15
2022-08-04T20:55:08.119Z,5.80
2022-08-04T20:57:48.311Z,5.45
2022-08-04T21:00:29.993Z,5.35
2022-08-04T21:02:58.038Z,5.93
2022-08-04T21:05:27.315Z,5.53
2022-08-04T21:07:57.387Z,5.60
2022-08-04T21:10:27.726Z,5.93
2022-08-04T21:12:54.816Z,5.45
2022-08-04T21:15:50.713Z,5.27
2022-08-04T21:18:12.747Z,5.30
2022-08-04T21:20:43.108Z,4.80
2022-08-04T21:23:10.067Z,4.93
2022-08-04T21:25:42.912Z,5.03
2022-08-04T21:28:10.398Z,4.75
2022-08-04T21:30:52.300Z,5.10
2022-08-04T21:33:22.826Z,5.00
2022-08-04T21:35:54.397Z,5.40
2022-08-04T21:38:25.218Z,5.43
2022-08-04T21:40:56.823Z,5.03
2022-08-04T21:43:27.438Z,4.68
2022-08-04T21:45:55.954Z,4.97
2022-08-04T21:51:59.399Z,5.00
2022-08-04T21:54:07.649Z,5.00
2022-08-04T21:56:35.587Z,5.37
2022-08-04T21:59:07.162Z,5.20
2022-08-04T22:01:52.443Z,5.07
2022-08-04T22:04:21.534Z,5.20
2022-08-04T22:06:52.401Z,4.90
2022-08-04T22:09:21.846Z,5.20
2022-08-04T22:11:51.050Z,5.00
2022-08-04T22:14:27.391Z,4.97
2022-08-04T22:17:00.874Z,5.27
2022-08-04T22:19:50.362Z,5.37
2022-08-04T22:22:25.576Z,5.40
2022-08-04T22:24:58.960Z,5.20
2022-08-04T22:27:44.742Z,5.23
2022-08-04T22:30:17.071Z,5.37
2022-08-04T22:32:46.252Z,5.17
2022-08-04T22:35:35.464Z,5.90
2022-08-04T22:38:06.316Z,5.10
2022-08-04T22:40:47.558Z,5.50
2022-08-04T22:43:32.602Z,5.70
2022-08-04T22:46:06.319Z,5.20
2022-08-04T22:48:35.006Z,5.63
2022-08-04T22:51:02.833Z,5.80
2022-08-04T22:53:30.892Z,5.70
2022-08-04T22:56:09.762Z,5.73
2022-08-04T22:58:45.562Z,5.20
2022-08-04T23:01:17.087Z,5.47
2022-08-04T23:03:51.185Z,5.03
2022-08-04T23:06:24.243Z,5.70
2022-08-04T23:08:51.482Z,5.40
2022-08-04T23:11:18.384Z,5.87
2022-08-04T23:13:45.405Z,5.80
2022-08-04T23:16:12.400Z,6.30
2022-08-04T23:18:41.939Z,5.87
2022-08-04T23:21:10.283Z,5.53
2022-08-04T23:23:38.140Z,6.23
2022-08-04T23:26:13.921Z,5.10
2022-08-04T23:28:41.747Z,6.07
2022-08-04T23:31:10.117Z,6.10
2022-08-04T23:33:51.181Z,5.87
2022-08-04T23:36:19.168Z,6.03
2022-08-04T23:38:59.594Z,6.20
2022-08-04T23:41:54.113Z,6.53
2022-08-04T23:44:17.547Z,6.03
2022-08-04T23:46:51.214Z,5.80
2022-08-04T23:49:20.165Z,6.37
2022-08-04T23:51:49.670Z,6.23
2022-08-04T23:54:16.760Z,6.33
2022-08-04T23:56:52.381Z,6.10
2022-08-04T23:59:49.023Z,6.10
